• Join FlightAware (Why Join?)
  • Login
  • US Flag 
11:54AM EDT


 

Airport Tracker/Info


-or-


 

Live Flight TrackerFlight Track Log ✈ N99PN ✈ 15-May-2014 ✈ KFPR - KORL

Flight Track Log - Related Links

Times and Time Zones

All times are in EDT time to prevent confusion due to time zone crossing. See the N99PN flight status page for this flight to view local times or setup timezone preferences in your user account.

Time Position Orientation Groundspeed Altitude Reporting Facility
EDT Latitude Longitude Course Direction KTS MPH feet Rate Location/Type
05:22PM 27.4542 -80.3653 191° South 99 114 1,900  Level Miami Center
05:23PM 27.4364 -80.3842 223° Southwest 112 129 3,100 1,080 Climbing Miami Center
05:24PM 27.4644 -80.4197 312° West 145 167 4,200 960 Climbing Miami Center
05:25PM 27.4989 -80.4486 323° Northwest 162 186 5,100 420 Climbing Miami Center
05:26PM 27.6670 -80.4837 318° Northwest  Level FlightAware Approximate
05:27PM 27.6939 -80.5211 299° West  Level FlightAware Approximate
05:27PM 27.5517 -80.4483 360° North 181 208 5,100  Level Miami Center
05:28PM 27.6036 -80.4656 344° North 182 209 5,100 -60 Level Miami Center
05:29PM 27.6497 -80.4847 340° North 183 211 5,000  Descending Miami Center
05:30PM 27.6992 -80.5008 344° North 181 208 5,100  Climbing Miami Center
05:31PM 27.7500 -80.5167 345° North 181 208 5,000 -60 Descending Miami Center
05:32PM 27.8031 -80.5344 343° North 189 217 5,000  Level Miami Center
05:33PM 27.8575 -80.5489 347° North 190 219 5,000  Level Miami Center
05:34PM 27.9061 -80.5669 342° North 190 219 5,100 -120 Climbing Miami Center
05:35PM 27.9492 -80.6017 325° Northwest 185 213 4,800 -360 Descending Miami Center
05:36PM 27.9903 -80.6444 317° Northwest 190 219 4,400 -420 Descending Miami Center
05:37PM 28.0333 -80.6833 321° Northwest 194 223 4,000 -180 Descending Orlando TRACON
05:38PM 28.0833 -80.7167 330° Northwest 180 207 4,100  Climbing Orlando TRACON
05:39PM 28.1167 -80.7667 307° West 176 203 4,100 -60 Level Orlando TRACON
05:40PM 28.1500 -80.8000 319° Northwest 184 212 4,000  Descending Orlando TRACON
05:41PM 28.1667 -80.8500 291° West 174 200 4,100  Climbing Orlando TRACON
05:42PM 28.2000 -80.9000 307° West 172 198 4,100 -300 Level Orlando TRACON
05:43PM 28.2394 -80.9353 322° Northwest 201 231 3,500 -480 Descending Miami Center
05:44PM 28.2831 -80.9706 325° Northwest 195 224 3,100 -300 Descending Miami Center
05:45PM 28.3258 -80.9983 330° Northwest 181 208 3,000 -300 Descending Miami Center
05:46PM 28.3697 -81.0258 331° Northwest 181 208 2,600 -480 Descending Miami Center
05:47PM 28.4167 -81.0667 323° Northwest 185 213 2,100 -360 Descending Orlando TRACON
05:48PM 28.4500 -81.1000 319° Northwest 178 205 2,000 -240 Descending Orlando TRACON
05:49PM 28.4833 -81.1333 319° Northwest 169 194 1,700 -180 Descending Orlando TRACON
05:50PM 28.5333 -81.1500 344° North 159 183 1,700 -60 Level Orlando TRACON
05:51PM 28.5667 -81.1833 319° Northwest 156 180 1,600 -180 Descending Orlando TRACON
05:52PM 28.5833 -81.2167 300° West 126 145 1,400 -360 Descending Orlando TRACON
05:53PM 28.5667 -81.2667 249° West 120 138 900 -420 Descending Orlando TRACON
05:54PM 28.5667 -81.3000 270° West 112 129 600 -300 Descending Orlando TRACON
05:56PM 28.5455 -81.3329 204° Southwest  Level Estimated
06:03PM 28.5455 -81.3329 300° West  Level Estimated
06:04PM 28.5455 -81.3329 130° Southeast  Level Estimated